sensor_id;sensor_type;location;lat;lon;timestamp;P1;durP1;ratioP1;P2;durP2;ratioP2
59974;SDS011;62136;-35.664;-63.766;2023-02-28T00:00:53;2.97;;;1.60;;
59974;SDS011;62136;-35.664;-63.766;2023-02-28T00:03:20;2.50;;;1.27;;
59974;SDS011;62136;-35.664;-63.766;2023-02-28T00:05:47;3.58;;;1.73;;
59974;SDS011;62136;-35.664;-63.766;2023-02-28T00:08:14;2.75;;;1.25;;
59974;SDS011;62136;-35.664;-63.766;2023-02-28T00:10:41;2.35;;;1.20;;
59974;SDS011;62136;-35.664;-63.766;2023-02-28T00:13:09;2.30;;;1.70;;
59974;SDS011;62136;-35.664;-63.766;2023-02-28T00:15:36;2.35;;;1.40;;
59974;SDS011;62136;-35.664;-63.766;2023-02-28T00:18:03;2.35;;;1.50;;
59974;SDS011;62136;-35.664;-63.766;2023-02-28T00:20:30;3.72;;;1.50;;
59974;SDS011;62136;-35.664;-63.766;2023-02-28T00:22:57;3.40;;;1.40;;
59974;SDS011;62136;-35.664;-63.766;2023-02-28T00:25:25;4.72;;;1.85;;
59974;SDS011;62136;-35.664;-63.766;2023-02-28T00:27:52;3.72;;;1.50;;
59974;SDS011;62136;-35.664;-63.766;2023-02-28T00:30:21;2.97;;;1.50;;
59974;SDS011;62136;-35.664;-63.766;2023-02-28T00:32:49;2.45;;;1.73;;
59974;SDS011;62136;-35.664;-63.766;2023-02-28T00:35:16;2.90;;;1.52;;
59974;SDS011;62136;-35.664;-63.766;2023-02-28T00:37:44;1.95;;;1.45;;
59974;SDS011;62136;-35.664;-63.766;2023-02-28T00:40:11;4.78;;;1.63;;
59974;SDS011;62136;-35.664;-63.766;2023-02-28T00:42:38;3.47;;;1.77;;
59974;SDS011;62136;-35.664;-63.766;2023-02-28T00:45:06;3.70;;;1.80;;
59974;SDS011;62136;-35.664;-63.766;2023-02-28T00:47:34;2.03;;;1.55;;
59974;SDS011;62136;-35.664;-63.766;2023-02-28T00:50:01;6.53;;;2.08;;
59974;SDS011;62136;-35.664;-63.766;2023-02-28T00:52:28;3.28;;;1.70;;
59974;SDS011;62136;-35.664;-63.766;2023-02-28T00:54:55;5.32;;;2.00;;
59974;SDS011;62136;-35.664;-63.766;2023-02-28T00:57:22;4.72;;;2.05;;
59974;SDS011;62136;-35.664;-63.766;2023-02-28T00:59:50;3.88;;;1.70;;
59974;SDS011;62136;-35.664;-63.766;2023-02-28T01:02:20;3.83;;;1.77;;
59974;SDS011;62136;-35.664;-63.766;2023-02-28T01:04:48;3.28;;;1.63;;
59974;SDS011;62136;-35.664;-63.766;2023-02-28T01:07:15;3.85;;;1.70;;
59974;SDS011;62136;-35.664;-63.766;2023-02-28T01:09:43;3.75;;;2.00;;
59974;SDS011;62136;-35.664;-63.766;2023-02-28T01:12:10;4.55;;;1.70;;
59974;SDS011;62136;-35.664;-63.766;2023-02-28T01:14:37;4.22;;;1.90;;
59974;SDS011;62136;-35.664;-63.766;2023-02-28T01:17:04;4.05;;;2.10;;
59974;SDS011;62136;-35.664;-63.766;2023-02-28T01:19:31;4.85;;;2.03;;
59974;SDS011;62136;-35.664;-63.766;2023-02-28T01:22:05;5.13;;;1.98;;
59974;SDS011;62136;-35.664;-63.766;2023-02-28T01:24:32;3.80;;;2.17;;
59974;SDS011;62136;-35.664;-63.766;2023-02-28T01:27:00;4.20;;;2.35;;
59974;SDS011;62136;-35.664;-63.766;2023-02-28T01:29:27;4.78;;;2.13;;
59974;SDS011;62136;-35.664;-63.766;2023-02-28T01:31:54;5.10;;;2.35;;
59974;SDS011;62136;-35.664;-63.766;2023-02-28T01:34:22;3.97;;;2.20;;
59974;SDS011;62136;-35.664;-63.766;2023-02-28T01:36:55;5.05;;;2.40;;
59974;SDS011;62136;-35.664;-63.766;2023-02-28T01:39:24;4.50;;;2.28;;
59974;SDS011;62136;-35.664;-63.766;2023-02-28T01:41:55;5.07;;;2.42;;
59974;SDS011;62136;-35.664;-63.766;2023-02-28T01:47:36;5.70;;;2.50;;
59974;SDS011;62136;-35.664;-63.766;2023-02-28T01:50:11;7.05;;;2.97;;
59974;SDS011;62136;-35.664;-63.766;2023-02-28T01:52:40;7.30;;;2.50;;
59974;SDS011;62136;-35.664;-63.766;2023-02-28T01:55:12;4.95;;;2.53;;
59974;SDS011;62136;-35.664;-63.766;2023-02-28T01:57:42;5.93;;;2.40;;
59974;SDS011;62136;-35.664;-63.766;2023-02-28T02:00:13;5.13;;;2.20;;
59974;SDS011;62136;-35.664;-63.766;2023-02-28T02:02:46;3.33;;;2.17;;
59974;SDS011;62136;-35.664;-63.766;2023-02-28T02:05:18;3.92;;;2.33;;
59974;SDS011;62136;-35.664;-63.766;2023-02-28T02:07:50;4.03;;;2.17;;
59974;SDS011;62136;-35.664;-63.766;2023-02-28T02:13:20;7.13;;;2.27;;
59974;SDS011;62136;-35.664;-63.766;2023-02-28T02:18:48;5.13;;;2.20;;
59974;SDS011;62136;-35.664;-63.766;2023-02-28T02:21:54;3.67;;;2.28;;
59974;SDS011;62136;-35.664;-63.766;2023-02-28T02:27:27;5.38;;;2.50;;
59974;SDS011;62136;-35.664;-63.766;2023-02-28T02:36:10;4.55;;;2.10;;
59974;SDS011;62136;-35.664;-63.766;2023-02-28T02:46:51;4.53;;;2.72;;
59974;SDS011;62136;-35.664;-63.766;2023-02-28T02:49:29;5.15;;;2.33;;
59974;SDS011;62136;-35.664;-63.766;2023-02-28T02:52:05;3.75;;;2.20;;
59974;SDS011;62136;-35.664;-63.766;2023-02-28T02:54:35;5.05;;;2.60;;
59974;SDS011;62136;-35.664;-63.766;2023-02-28T02:57:07;5.53;;;2.40;;
59974;SDS011;62136;-35.664;-63.766;2023-02-28T02:59:55;7.75;;;2.75;;
59974;SDS011;62136;-35.664;-63.766;2023-02-28T03:02:23;4.63;;;2.20;;
59974;SDS011;62136;-35.664;-63.766;2023-02-28T03:04:54;4.57;;;2.53;;
59974;SDS011;62136;-35.664;-63.766;2023-02-28T03:07:26;4.15;;;2.05;;
59974;SDS011;62136;-35.664;-63.766;2023-02-28T03:09:56;5.28;;;2.58;;
59974;SDS011;62136;-35.664;-63.766;2023-02-28T03:12:28;4.85;;;2.45;;
59974;SDS011;62136;-35.664;-63.766;2023-02-28T03:15:40;7.07;;;2.38;;
59974;SDS011;62136;-35.664;-63.766;2023-02-28T03:18:09;7.15;;;2.70;;
59974;SDS011;62136;-35.664;-63.766;2023-02-28T03:20:52;4.03;;;2.15;;
59974;SDS011;62136;-35.664;-63.766;2023-02-28T03:23:31;5.05;;;2.50;;
59974;SDS011;62136;-35.664;-63.766;2023-02-28T03:26:13;4.47;;;2.55;;
59974;SDS011;62136;-35.664;-63.766;2023-02-28T03:31:36;3.38;;;2.20;;
59974;SDS011;62136;-35.664;-63.766;2023-02-28T03:34:12;3.83;;;2.15;;
59974;SDS011;62136;-35.664;-63.766;2023-02-28T03:36:51;3.77;;;2.33;;
59974;SDS011;62136;-35.664;-63.766;2023-02-28T03:39:25;5.30;;;2.13;;
59974;SDS011;62136;-35.664;-63.766;2023-02-28T03:42:01;6.05;;;2.70;;
59974;SDS011;62136;-35.664;-63.766;2023-02-28T03:44:35;4.60;;;2.50;;
59974;SDS011;62136;-35.664;-63.766;2023-02-28T03:47:16;3.47;;;2.15;;
59974;SDS011;62136;-35.664;-63.766;2023-02-28T03:55:47;3.88;;;2.53;;
59974;SDS011;62136;-35.664;-63.766;2023-02-28T04:00:58;4.60;;;2.25;;
59974;SDS011;62136;-35.664;-63.766;2023-02-28T04:03:39;4.57;;;2.47;;
59974;SDS011;62136;-35.664;-63.766;2023-02-28T04:06:14;4.85;;;2.45;;
59974;SDS011;62136;-35.664;-63.766;2023-02-28T04:08:47;6.80;;;2.70;;
59974;SDS011;62136;-35.664;-63.766;2023-02-28T04:13:48;5.80;;;2.38;;
59974;SDS011;62136;-35.664;-63.766;2023-02-28T04:16:15;6.47;;;2.50;;
59974;SDS011;62136;-35.664;-63.766;2023-02-28T04:18:42;4.75;;;2.47;;
59974;SDS011;62136;-35.664;-63.766;2023-02-28T04:21:09;3.83;;;2.38;;
59974;SDS011;62136;-35.664;-63.766;2023-02-28T04:23:37;5.00;;;2.28;;
59974;SDS011;62136;-35.664;-63.766;2023-02-28T04:26:04;5.93;;;2.50;;
59974;SDS011;62136;-35.664;-63.766;2023-02-28T04:28:32;5.53;;;2.47;;
59974;SDS011;62136;-35.664;-63.766;2023-02-28T04:31:01;5.75;;;2.67;;
59974;SDS011;62136;-35.664;-63.766;2023-02-28T04:33:30;6.50;;;2.42;;
59974;SDS011;62136;-35.664;-63.766;2023-02-28T04:36:05;5.47;;;2.53;;
59974;SDS011;62136;-35.664;-63.766;2023-02-28T04:38:35;3.60;;;2.28;;
59974;SDS011;62136;-35.664;-63.766;2023-02-28T04:41:03;3.88;;;2.22;;
59974;SDS011;62136;-35.664;-63.766;2023-02-28T04:43:31;4.43;;;2.50;;
59974;SDS011;62136;-35.664;-63.766;2023-02-28T04:46:00;4.55;;;2.38;;
59974;SDS011;62136;-35.664;-63.766;2023-02-28T04:48:29;5.47;;;2.63;;
59974;SDS011;62136;-35.664;-63.766;2023-02-28T04:51:05;4.85;;;2.58;;
59974;SDS011;62136;-35.664;-63.766;2023-02-28T04:53:34;5.15;;;2.50;;
59974;SDS011;62136;-35.664;-63.766;2023-02-28T04:56:02;6.28;;;2.65;;
59974;SDS011;62136;-35.664;-63.766;2023-02-28T04:58:30;4.15;;;2.47;;
59974;SDS011;62136;-35.664;-63.766;2023-02-28T05:01:04;5.05;;;2.53;;
59974;SDS011;62136;-35.664;-63.766;2023-02-28T05:03:52;4.35;;;2.60;;
59974;SDS011;62136;-35.664;-63.766;2023-02-28T05:06:21;4.95;;;2.30;;
59974;SDS011;62136;-35.664;-63.766;2023-02-28T05:08:50;3.03;;;1.98;;
59974;SDS011;62136;-35.664;-63.766;2023-02-28T05:13:49;7.35;;;2.85;;
59974;SDS011;62136;-35.664;-63.766;2023-02-28T05:16:18;3.97;;;2.00;;
59974;SDS011;62136;-35.664;-63.766;2023-02-28T05:18:45;3.38;;;2.33;;
59974;SDS011;62136;-35.664;-63.766;2023-02-28T05:24:01;5.00;;;2.08;;
59974;SDS011;62136;-35.664;-63.766;2023-02-28T05:26:37;5.32;;;2.45;;
59974;SDS011;62136;-35.664;-63.766;2023-02-28T05:29:06;2.58;;;2.05;;
59974;SDS011;62136;-35.664;-63.766;2023-02-28T05:31:33;3.13;;;2.05;;
59974;SDS011;62136;-35.664;-63.766;2023-02-28T05:34:00;6.55;;;2.45;;
59974;SDS011;62136;-35.664;-63.766;2023-02-28T05:36:29;3.35;;;2.40;;
59974;SDS011;62136;-35.664;-63.766;2023-02-28T05:38:56;5.13;;;2.40;;
59974;SDS011;62136;-35.664;-63.766;2023-02-28T05:41:23;4.25;;;2.63;;
59974;SDS011;62136;-35.664;-63.766;2023-02-28T05:43:51;6.32;;;2.33;;
59974;SDS011;62136;-35.664;-63.766;2023-02-28T05:46:18;4.60;;;2.30;;
59974;SDS011;62136;-35.664;-63.766;2023-02-28T05:48:46;5.15;;;2.38;;
59974;SDS011;62136;-35.664;-63.766;2023-02-28T05:51:13;5.40;;;2.92;;
59974;SDS011;62136;-35.664;-63.766;2023-02-28T05:53:40;4.13;;;2.40;;
59974;SDS011;62136;-35.664;-63.766;2023-02-28T05:56:08;4.28;;;2.45;;
59974;SDS011;62136;-35.664;-63.766;2023-02-28T05:58:35;3.58;;;2.30;;
59974;SDS011;62136;-35.664;-63.766;2023-02-28T06:01:24;4.22;;;2.70;;
59974;SDS011;62136;-35.664;-63.766;2023-02-28T06:04:00;5.50;;;2.47;;
59974;SDS011;62136;-35.664;-63.766;2023-02-28T06:06:28;3.88;;;2.33;;
59974;SDS011;62136;-35.664;-63.766;2023-02-28T06:08:56;4.13;;;2.75;;
59974;SDS011;62136;-35.664;-63.766;2023-02-28T06:11:23;4.68;;;2.42;;
59974;SDS011;62136;-35.664;-63.766;2023-02-28T06:13:54;3.17;;;2.20;;
59974;SDS011;62136;-35.664;-63.766;2023-02-28T06:16:26;5.30;;;2.40;;
59974;SDS011;62136;-35.664;-63.766;2023-02-28T06:18:54;5.00;;;2.78;;
59974;SDS011;62136;-35.664;-63.766;2023-02-28T06:21:23;4.70;;;2.22;;
59974;SDS011;62136;-35.664;-63.766;2023-02-28T06:23:50;5.80;;;2.20;;
59974;SDS011;62136;-35.664;-63.766;2023-02-28T06:26:17;4.88;;;2.38;;
59974;SDS011;62136;-35.664;-63.766;2023-02-28T06:28:45;3.45;;;2.42;;
59974;SDS011;62136;-35.664;-63.766;2023-02-28T06:31:13;4.88;;;2.28;;
59974;SDS011;62136;-35.664;-63.766;2023-02-28T06:33:42;3.15;;;1.95;;
59974;SDS011;62136;-35.664;-63.766;2023-02-28T06:36:11;5.38;;;2.53;;
59974;SDS011;62136;-35.664;-63.766;2023-02-28T06:38:39;5.05;;;2.47;;
59974;SDS011;62136;-35.664;-63.766;2023-02-28T06:41:07;5.57;;;2.35;;
59974;SDS011;62136;-35.664;-63.766;2023-02-28T06:43:36;4.88;;;2.90;;
59974;SDS011;62136;-35.664;-63.766;2023-02-28T06:46:06;5.00;;;2.45;;
59974;SDS011;62136;-35.664;-63.766;2023-02-28T06:48:34;5.18;;;2.47;;
59974;SDS011;62136;-35.664;-63.766;2023-02-28T06:51:35;5.57;;;2.55;;
59974;SDS011;62136;-35.664;-63.766;2023-02-28T06:53:54;4.65;;;2.13;;
59974;SDS011;62136;-35.664;-63.766;2023-02-28T06:56:22;6.60;;;2.42;;
59974;SDS011;62136;-35.664;-63.766;2023-02-28T06:58:49;5.38;;;2.40;;
59974;SDS011;62136;-35.664;-63.766;2023-02-28T07:01:18;4.28;;;2.38;;
59974;SDS011;62136;-35.664;-63.766;2023-02-28T07:03:48;2.83;;;2.08;;
59974;SDS011;62136;-35.664;-63.766;2023-02-28T07:06:21;4.50;;;2.35;;
59974;SDS011;62136;-35.664;-63.766;2023-02-28T07:08:50;5.20;;;2.60;;
59974;SDS011;62136;-35.664;-63.766;2023-02-28T07:11:18;3.85;;;2.50;;
59974;SDS011;62136;-35.664;-63.766;2023-02-28T07:13:48;4.38;;;2.67;;
59974;SDS011;62136;-35.664;-63.766;2023-02-28T07:16:16;4.32;;;2.53;;
59974;SDS011;62136;-35.664;-63.766;2023-02-28T07:18:43;4.65;;;2.08;;
59974;SDS011;62136;-35.664;-63.766;2023-02-28T07:21:11;5.43;;;2.30;;
59974;SDS011;62136;-35.664;-63.766;2023-02-28T07:23:38;6.10;;;2.80;;
59974;SDS011;62136;-35.664;-63.766;2023-02-28T07:26:06;3.30;;;2.30;;
59974;SDS011;62136;-35.664;-63.766;2023-02-28T07:28:38;4.55;;;2.53;;
59974;SDS011;62136;-35.664;-63.766;2023-02-28T07:31:05;3.58;;;2.47;;
59974;SDS011;62136;-35.664;-63.766;2023-02-28T07:33:33;5.22;;;2.42;;
59974;SDS011;62136;-35.664;-63.766;2023-02-28T07:36:01;6.93;;;2.55;;
59974;SDS011;62136;-35.664;-63.766;2023-02-28T07:38:36;4.60;;;2.60;;
59974;SDS011;62136;-35.664;-63.766;2023-02-28T07:41:03;4.95;;;2.40;;
59974;SDS011;62136;-35.664;-63.766;2023-02-28T07:43:31;3.47;;;2.20;;
59974;SDS011;62136;-35.664;-63.766;2023-02-28T07:46:08;3.80;;;2.17;;
59974;SDS011;62136;-35.664;-63.766;2023-02-28T07:48:37;5.45;;;2.75;;
59974;SDS011;62136;-35.664;-63.766;2023-02-28T07:51:04;6.57;;;2.70;;
59974;SDS011;62136;-35.664;-63.766;2023-02-28T07:53:32;6.40;;;2.60;;
59974;SDS011;62136;-35.664;-63.766;2023-02-28T07:56:00;4.22;;;2.10;;
59974;SDS011;62136;-35.664;-63.766;2023-02-28T07:58:28;3.05;;;2.40;;
59974;SDS011;62136;-35.664;-63.766;2023-02-28T08:00:56;6.15;;;2.63;;
59974;SDS011;62136;-35.664;-63.766;2023-02-28T08:03:30;4.68;;;2.20;;
59974;SDS011;62136;-35.664;-63.766;2023-02-28T08:05:57;5.47;;;2.20;;
59974;SDS011;62136;-35.664;-63.766;2023-02-28T08:08:24;4.50;;;2.10;;
59974;SDS011;62136;-35.664;-63.766;2023-02-28T08:10:54;5.35;;;2.72;;
59974;SDS011;62136;-35.664;-63.766;2023-02-28T08:13:21;3.53;;;2.00;;
59974;SDS011;62136;-35.664;-63.766;2023-02-28T08:15:48;4.47;;;2.55;;
59974;SDS011;62136;-35.664;-63.766;2023-02-28T08:18:15;6.45;;;2.20;;
59974;SDS011;62136;-35.664;-63.766;2023-02-28T08:20:42;4.03;;;2.47;;
59974;SDS011;62136;-35.664;-63.766;2023-02-28T08:23:09;3.83;;;2.40;;
59974;SDS011;62136;-35.664;-63.766;2023-02-28T08:25:36;4.65;;;2.60;;
59974;SDS011;62136;-35.664;-63.766;2023-02-28T08:28:03;4.20;;;2.15;;
59974;SDS011;62136;-35.664;-63.766;2023-02-28T08:30:30;4.43;;;2.33;;
59974;SDS011;62136;-35.664;-63.766;2023-02-28T08:32:57;4.68;;;2.60;;
59974;SDS011;62136;-35.664;-63.766;2023-02-28T08:35:24;4.15;;;2.40;;
59974;SDS011;62136;-35.664;-63.766;2023-02-28T08:37:51;3.45;;;2.00;;
59974;SDS011;62136;-35.664;-63.766;2023-02-28T08:40:18;4.18;;;2.67;;
59974;SDS011;62136;-35.664;-63.766;2023-02-28T08:42:46;3.53;;;2.55;;
59974;SDS011;62136;-35.664;-63.766;2023-02-28T08:45:14;3.15;;;2.08;;
59974;SDS011;62136;-35.664;-63.766;2023-02-28T08:47:41;4.38;;;2.33;;
59974;SDS011;62136;-35.664;-63.766;2023-02-28T08:50:08;4.40;;;2.90;;
59974;SDS011;62136;-35.664;-63.766;2023-02-28T08:52:36;3.38;;;2.50;;
59974;SDS011;62136;-35.664;-63.766;2023-02-28T08:55:04;4.82;;;2.25;;
59974;SDS011;62136;-35.664;-63.766;2023-02-28T08:57:31;3.95;;;2.47;;
59974;SDS011;62136;-35.664;-63.766;2023-02-28T08:59:58;3.55;;;2.13;;
59974;SDS011;62136;-35.664;-63.766;2023-02-28T09:02:32;4.25;;;2.53;;
59974;SDS011;62136;-35.664;-63.766;2023-02-28T09:04:59;4.90;;;2.17;;
59974;SDS011;62136;-35.664;-63.766;2023-02-28T09:07:26;3.63;;;2.33;;
59974;SDS011;62136;-35.664;-63.766;2023-02-28T09:09:53;5.53;;;2.50;;
59974;SDS011;62136;-35.664;-63.766;2023-02-28T09:12:23;4.40;;;2.20;;
59974;SDS011;62136;-35.664;-63.766;2023-02-28T09:14:52;2.88;;;2.08;;
59974;SDS011;62136;-35.664;-63.766;2023-02-28T09:17:19;3.38;;;2.17;;
59974;SDS011;62136;-35.664;-63.766;2023-02-28T09:19:49;4.43;;;2.42;;
59974;SDS011;62136;-35.664;-63.766;2023-02-28T09:22:16;4.05;;;2.17;;
59974;SDS011;62136;-35.664;-63.766;2023-02-28T09:24:43;3.13;;;2.10;;
59974;SDS011;62136;-35.664;-63.766;2023-02-28T09:27:11;3.40;;;2.35;;
59974;SDS011;62136;-35.664;-63.766;2023-02-28T09:29:38;4.90;;;2.20;;
59974;SDS011;62136;-35.664;-63.766;2023-02-28T09:32:05;4.00;;;2.60;;
59974;SDS011;62136;-35.664;-63.766;2023-02-28T09:34:32;3.35;;;2.25;;
59974;SDS011;62136;-35.664;-63.766;2023-02-28T09:36:59;5.65;;;2.30;;
59974;SDS011;62136;-35.664;-63.766;2023-02-28T09:39:26;6.15;;;2.80;;
59974;SDS011;62136;-35.664;-63.766;2023-02-28T09:41:54;6.97;;;2.63;;
59974;SDS011;62136;-35.664;-63.766;2023-02-28T09:44:24;3.97;;;2.58;;
59974;SDS011;62136;-35.664;-63.766;2023-02-28T09:49:56;4.38;;;2.58;;
59974;SDS011;62136;-35.664;-63.766;2023-02-28T09:52:29;3.47;;;2.30;;
59974;SDS011;62136;-35.664;-63.766;2023-02-28T09:57:50;3.95;;;2.55;;
59974;SDS011;62136;-35.664;-63.766;2023-02-28T10:00:24;3.80;;;2.28;;
59974;SDS011;62136;-35.664;-63.766;2023-02-28T10:05:50;4.28;;;2.33;;
59974;SDS011;62136;-35.664;-63.766;2023-02-28T10:08:29;3.72;;;2.47;;
59974;SDS011;62136;-35.664;-63.766;2023-02-28T10:11:07;4.03;;;2.15;;
59974;SDS011;62136;-35.664;-63.766;2023-02-28T10:14:38;7.25;;;2.45;;
59974;SDS011;62136;-35.664;-63.766;2023-02-28T10:16:51;5.07;;;2.95;;
59974;SDS011;62136;-35.664;-63.766;2023-02-28T10:19:35;4.70;;;2.90;;
59974;SDS011;62136;-35.664;-63.766;2023-02-28T10:25:00;6.30;;;3.30;;
59974;SDS011;62136;-35.664;-63.766;2023-02-28T10:27:33;4.03;;;2.90;;
59974;SDS011;62136;-35.664;-63.766;2023-02-28T10:30:01;4.97;;;3.20;;
59974;SDS011;62136;-35.664;-63.766;2023-02-28T10:32:30;7.35;;;3.40;;
59974;SDS011;62136;-35.664;-63.766;2023-02-28T10:35:18;5.85;;;3.00;;
59974;SDS011;62136;-35.664;-63.766;2023-02-28T10:37:54;6.85;;;3.05;;
59974;SDS011;62136;-35.664;-63.766;2023-02-28T10:42:55;3.45;;;2.80;;
59974;SDS011;62136;-35.664;-63.766;2023-02-28T10:45:28;4.78;;;3.10;;
59974;SDS011;62136;-35.664;-63.766;2023-02-28T10:48:06;5.65;;;3.38;;
59974;SDS011;62136;-35.664;-63.766;2023-02-28T10:51:10;5.07;;;3.30;;
59974;SDS011;62136;-35.664;-63.766;2023-02-28T10:56:17;4.95;;;3.13;;
59974;SDS011;62136;-35.664;-63.766;2023-02-28T11:07:06;5.60;;;3.60;;
59974;SDS011;62136;-35.664;-63.766;2023-02-28T11:09:46;5.55;;;3.75;;
59974;SDS011;62136;-35.664;-63.766;2023-02-28T11:12:22;4.45;;;3.30;;
59974;SDS011;62136;-35.664;-63.766;2023-02-28T11:15:46;6.93;;;3.28;;
59974;SDS011;62136;-35.664;-63.766;2023-02-28T11:20:33;4.80;;;3.15;;
59974;SDS011;62136;-35.664;-63.766;2023-02-28T11:23:02;4.25;;;3.15;;
59974;SDS011;62136;-35.664;-63.766;2023-02-28T11:25:35;4.90;;;3.28;;
59974;SDS011;62136;-35.664;-63.766;2023-02-28T11:28:23;5.63;;;3.20;;
59974;SDS011;62136;-35.664;-63.766;2023-02-28T11:34:00;5.13;;;3.40;;
59974;SDS011;62136;-35.664;-63.766;2023-02-28T11:36:28;4.15;;;3.40;;
59974;SDS011;62136;-35.664;-63.766;2023-02-28T11:38:59;5.85;;;3.30;;
59974;SDS011;62136;-35.664;-63.766;2023-02-28T11:50:03;6.40;;;3.00;;
59974;SDS011;62136;-35.664;-63.766;2023-02-28T11:52:53;3.55;;;2.95;;
59974;SDS011;62136;-35.664;-63.766;2023-02-28T11:58:22;4.00;;;2.88;;
59974;SDS011;62136;-35.664;-63.766;2023-02-28T12:03:53;3.88;;;3.22;;
59974;SDS011;62136;-35.664;-63.766;2023-02-28T12:06:52;4.45;;;3.35;;
59974;SDS011;62136;-35.664;-63.766;2023-02-28T12:20:54;3.30;;;3.00;;
59974;SDS011;62136;-35.664;-63.766;2023-02-28T12:23:47;5.80;;;3.90;;
59974;SDS011;62136;-35.664;-63.766;2023-02-28T12:29:22;6.03;;;4.03;;
59974;SDS011;62136;-35.664;-63.766;2023-02-28T12:32:09;4.30;;;3.72;;
59974;SDS011;62136;-35.664;-63.766;2023-02-28T12:34:51;5.90;;;3.88;;
59974;SDS011;62136;-35.664;-63.766;2023-02-28T12:37:32;5.13;;;3.58;;
59974;SDS011;62136;-35.664;-63.766;2023-02-28T12:42:50;7.30;;;3.75;;
59974;SDS011;62136;-35.664;-63.766;2023-02-28T12:45:59;6.10;;;4.00;;
59974;SDS011;62136;-35.664;-63.766;2023-02-28T12:51:07;9.27;;;3.83;;
59974;SDS011;62136;-35.664;-63.766;2023-02-28T12:59:03;5.10;;;4.20;;
59974;SDS011;62136;-35.664;-63.766;2023-02-28T13:10:06;8.73;;;3.95;;
59974;SDS011;62136;-35.664;-63.766;2023-02-28T13:12:46;7.30;;;4.00;;
59974;SDS011;62136;-35.664;-63.766;2023-02-28T13:20:32;8.53;;;4.30;;
59974;SDS011;62136;-35.664;-63.766;2023-02-28T13:23:03;4.90;;;3.65;;
59974;SDS011;62136;-35.664;-63.766;2023-02-28T13:25:50;4.05;;;3.65;;
59974;SDS011;62136;-35.664;-63.766;2023-02-28T13:28:56;14.23;;;4.80;;
59974;SDS011;62136;-35.664;-63.766;2023-02-28T13:31:14;22.52;;;5.25;;
59974;SDS011;62136;-35.664;-63.766;2023-02-28T13:38:45;24.08;;;4.95;;
59974;SDS011;62136;-35.664;-63.766;2023-02-28T13:43:59;26.60;;;6.38;;
59974;SDS011;62136;-35.664;-63.766;2023-02-28T13:46:31;16.75;;;6.05;;
59974;SDS011;62136;-35.664;-63.766;2023-02-28T13:54:20;18.85;;;5.40;;
59974;SDS011;62136;-35.664;-63.766;2023-02-28T14:00:13;13.50;;;4.93;;
59974;SDS011;62136;-35.664;-63.766;2023-02-28T14:05:35;12.60;;;4.28;;
59974;SDS011;62136;-35.664;-63.766;2023-02-28T14:08:25;11.57;;;4.90;;
59974;SDS011;62136;-35.664;-63.766;2023-02-28T14:11:02;14.00;;;4.75;;
59974;SDS011;62136;-35.664;-63.766;2023-02-28T14:13:42;7.78;;;4.13;;
59974;SDS011;62136;-35.664;-63.766;2023-02-28T14:16:22;9.25;;;4.50;;
59974;SDS011;62136;-35.664;-63.766;2023-02-28T14:18:56;10.23;;;4.40;;
59974;SDS011;62136;-35.664;-63.766;2023-02-28T14:21:33;11.82;;;4.13;;
59974;SDS011;62136;-35.664;-63.766;2023-02-28T14:35:28;7.70;;;4.18;;
59974;SDS011;62136;-35.664;-63.766;2023-02-28T14:38:17;9.18;;;5.03;;
59974;SDS011;62136;-35.664;-63.766;2023-02-28T14:40:54;7.10;;;4.18;;
59974;SDS011;62136;-35.664;-63.766;2023-02-28T14:43:24;8.18;;;4.30;;
59974;SDS011;62136;-35.664;-63.766;2023-02-28T14:45:59;7.30;;;4.32;;
59974;SDS011;62136;-35.664;-63.766;2023-02-28T14:48:27;7.07;;;4.45;;
59974;SDS011;62136;-35.664;-63.766;2023-02-28T14:50:59;7.53;;;4.70;;
59974;SDS011;62136;-35.664;-63.766;2023-02-28T14:53:35;6.18;;;4.97;;
59974;SDS011;62136;-35.664;-63.766;2023-02-28T14:56:03;5.85;;;4.68;;
59974;SDS011;62136;-35.664;-63.766;2023-02-28T14:58:31;7.03;;;5.10;;
59974;SDS011;62136;-35.664;-63.766;2023-02-28T15:01:00;8.63;;;5.20;;
59974;SDS011;62136;-35.664;-63.766;2023-02-28T15:03:35;7.13;;;5.40;;
59974;SDS011;62136;-35.664;-63.766;2023-02-28T15:06:14;8.52;;;5.45;;
59974;SDS011;62136;-35.664;-63.766;2023-02-28T15:08:43;8.63;;;5.63;;
59974;SDS011;62136;-35.664;-63.766;2023-02-28T15:11:15;6.70;;;5.28;;
59974;SDS011;62136;-35.664;-63.766;2023-02-28T15:13:50;7.07;;;5.20;;
59974;SDS011;62136;-35.664;-63.766;2023-02-28T15:16:22;6.95;;;5.03;;
59974;SDS011;62136;-35.664;-63.766;2023-02-28T15:29:19;9.05;;;5.80;;
59974;SDS011;62136;-35.664;-63.766;2023-02-28T15:31:56;8.52;;;5.38;;
59974;SDS011;62136;-35.664;-63.766;2023-02-28T15:34:38;5.53;;;5.00;;
59974;SDS011;62136;-35.664;-63.766;2023-02-28T15:42:42;7.20;;;5.30;;
59974;SDS011;62136;-35.664;-63.766;2023-02-28T15:45:27;8.75;;;5.82;;
59974;SDS011;62136;-35.664;-63.766;2023-02-28T15:48:00;6.65;;;5.57;;
59974;SDS011;62136;-35.664;-63.766;2023-02-28T15:50:27;6.68;;;5.70;;
59974;SDS011;62136;-35.664;-63.766;2023-02-28T15:52:54;6.85;;;5.45;;
59974;SDS011;62136;-35.664;-63.766;2023-02-28T15:55:23;7.05;;;6.10;;
59974;SDS011;62136;-35.664;-63.766;2023-02-28T15:57:55;6.07;;;5.53;;
59974;SDS011;62136;-35.664;-63.766;2023-02-28T16:00:26;7.55;;;5.78;;
59974;SDS011;62136;-35.664;-63.766;2023-02-28T16:02:55;7.22;;;5.90;;
59974;SDS011;62136;-35.664;-63.766;2023-02-28T16:07:56;7.03;;;5.78;;
59974;SDS011;62136;-35.664;-63.766;2023-02-28T16:10:25;6.72;;;5.65;;
59974;SDS011;62136;-35.664;-63.766;2023-02-28T16:12:55;6.53;;;5.82;;
59974;SDS011;62136;-35.664;-63.766;2023-02-28T16:15:27;6.63;;;5.75;;
59974;SDS011;62136;-35.664;-63.766;2023-02-28T16:18:08;6.93;;;5.50;;
59974;SDS011;62136;-35.664;-63.766;2023-02-28T16:20:39;5.95;;;5.32;;
59974;SDS011;62136;-35.664;-63.766;2023-02-28T16:23:06;7.97;;;6.20;;
59974;SDS011;62136;-35.664;-63.766;2023-02-28T16:25:37;6.32;;;5.35;;
59974;SDS011;62136;-35.664;-63.766;2023-02-28T16:28:08;6.95;;;5.80;;
59974;SDS011;62136;-35.664;-63.766;2023-02-28T16:30:44;6.65;;;6.05;;
59974;SDS011;62136;-35.664;-63.766;2023-02-28T16:35:50;7.95;;;6.05;;
59974;SDS011;62136;-35.664;-63.766;2023-02-28T16:38:17;6.13;;;5.63;;
59974;SDS011;62136;-35.664;-63.766;2023-02-28T16:40:46;6.55;;;5.53;;
59974;SDS011;62136;-35.664;-63.766;2023-02-28T16:43:22;8.90;;;6.03;;
59974;SDS011;62136;-35.664;-63.766;2023-02-28T16:45:56;6.32;;;5.57;;
59974;SDS011;62136;-35.664;-63.766;2023-02-28T16:48:25;6.95;;;5.70;;
59974;SDS011;62136;-35.664;-63.766;2023-02-28T16:50:52;7.03;;;5.72;;
59974;SDS011;62136;-35.664;-63.766;2023-02-28T16:53:19;6.82;;;5.95;;
59974;SDS011;62136;-35.664;-63.766;2023-02-28T16:55:46;6.40;;;5.80;;
59974;SDS011;62136;-35.664;-63.766;2023-02-28T16:58:14;6.28;;;5.68;;
59974;SDS011;62136;-35.664;-63.766;2023-02-28T17:00:42;6.95;;;5.70;;
59974;SDS011;62136;-35.664;-63.766;2023-02-28T17:03:20;7.18;;;6.22;;
59974;SDS011;62136;-35.664;-63.766;2023-02-28T17:05:50;6.00;;;5.40;;
59974;SDS011;62136;-35.664;-63.766;2023-02-28T17:08:17;6.93;;;5.88;;
59974;SDS011;62136;-35.664;-63.766;2023-02-28T17:10:44;6.47;;;5.65;;
59974;SDS011;62136;-35.664;-63.766;2023-02-28T17:13:12;7.15;;;6.13;;
59974;SDS011;62136;-35.664;-63.766;2023-02-28T17:15:39;5.55;;;5.05;;
59974;SDS011;62136;-35.664;-63.766;2023-02-28T17:18:08;6.82;;;6.03;;
59974;SDS011;62136;-35.664;-63.766;2023-02-28T17:20:41;5.90;;;5.28;;
59974;SDS011;62136;-35.664;-63.766;2023-02-28T17:23:08;6.63;;;5.85;;
59974;SDS011;62136;-35.664;-63.766;2023-02-28T17:25:35;6.57;;;5.60;;
59974;SDS011;62136;-35.664;-63.766;2023-02-28T17:28:05;5.75;;;5.22;;
59974;SDS011;62136;-35.664;-63.766;2023-02-28T17:30:33;6.00;;;5.35;;
59974;SDS011;62136;-35.664;-63.766;2023-02-28T17:33:00;7.85;;;6.25;;
59974;SDS011;62136;-35.664;-63.766;2023-02-28T17:35:29;6.35;;;5.68;;